Porto, Portugal
Current Conditions -  °F | °C
As of 9:00 PM on Monday 24 Nov 2014 (Local Time) from LPPR Reporting Station
Clear Clear  
Wind Chill: 55°   Ceiling: Unl
Heat Index: 55°   Visibility: 5mi
Dew Point: 55°   Wind: 3mph
Humidity: 100%   Direction: 130°SE
Pressure: 30.06"   Gusts: NA
Location:  41.15°N, 8.62°W
Report Text: LPPR 242100Z 13003KT 090V180 8000 NSC 13/13 Q1018
Loading
Personal Weather Stations






























Interactive Weather Map New forecast layout! Learn more

10-Day Weather Forecast

Advertisements
Track Severe Weather on mobile